sensor_id;sensor_type;location;lat;lon;timestamp;pressure;altitude;pressure_sealevel;temperature;humidity
71774;BME280;59607;52.130;5.430;2023-05-14T00:00:07;102151.38;;;12.76;96.42
71774;BME280;59607;52.130;5.430;2023-05-14T00:02:37;102140.59;;;12.69;96.94
71774;BME280;59607;52.130;5.430;2023-05-14T00:05:04;102141.72;;;12.66;97.26
71774;BME280;59607;52.130;5.430;2023-05-14T00:07:31;102142.00;;;12.63;97.75
71774;BME280;59607;52.130;5.430;2023-05-14T00:09:58;102137.03;;;12.60;98.10
71774;BME280;59607;52.130;5.430;2023-05-14T00:12:28;102136.34;;;12.58;98.17
71774;BME280;59607;52.130;5.430;2023-05-14T00:14:55;102133.84;;;12.56;98.86
71774;BME280;59607;52.130;5.430;2023-05-14T00:17:22;102123.75;;;12.52;99.33
71774;BME280;59607;52.130;5.430;2023-05-14T00:19:53;102128.19;;;12.51;99.72
71774;BME280;59607;52.130;5.430;2023-05-14T00:22:20;102126.69;;;12.49;99.77
71774;BME280;59607;52.130;5.430;2023-05-14T00:24:55;102128.63;;;12.46;100.00
71774;BME280;59607;52.130;5.430;2023-05-14T00:27:21;102130.56;;;12.44;100.00
71774;BME280;59607;52.130;5.430;2023-05-14T00:29:48;102122.00;;;12.42;100.00
71774;BME280;59607;52.130;5.430;2023-05-14T00:32:20;102120.19;;;12.43;100.00
71774;BME280;59607;52.130;5.430;2023-05-14T00:34:46;102121.59;;;12.37;100.00
71774;BME280;59607;52.130;5.430;2023-05-14T00:37:15;102119.09;;;12.36;100.00
71774;BME280;59607;52.130;5.430;2023-05-14T00:39:42;102111.34;;;12.34;100.00
71774;BME280;59607;52.130;5.430;2023-05-14T00:42:09;102114.00;;;12.34;100.00
71774;BME280;59607;52.130;5.430;2023-05-14T00:44:41;102110.66;;;12.32;100.00
71774;BME280;59607;52.130;5.430;2023-05-14T00:47:07;102104.84;;;12.28;100.00
71774;BME280;59607;52.130;5.430;2023-05-14T00:49:34;102104.03;;;12.28;100.00
71774;BME280;59607;52.130;5.430;2023-05-14T00:52:04;102104.03;;;12.28;100.00
71774;BME280;59607;52.130;5.430;2023-05-14T00:54:31;102090.19;;;12.26;100.00
71774;BME280;59607;52.130;5.430;2023-05-14T00:56:58;102094.91;;;12.22;100.00
71774;BME280;59607;52.130;5.430;2023-05-14T00:59:34;102085.38;;;12.21;100.00
71774;BME280;59607;52.130;5.430;2023-05-14T01:02:01;102085.50;;;12.19;100.00
71774;BME280;59607;52.130;5.430;2023-05-14T01:04:30;102082.88;;;12.19;100.00
71774;BME280;59607;52.130;5.430;2023-05-14T01:07:20;102093.69;;;12.16;100.00
71774;BME280;59607;52.130;5.430;2023-05-14T01:10:05;102091.59;;;12.10;100.00
71774;BME280;59607;52.130;5.430;2023-05-14T01:15:30;102097.41;;;12.04;100.00
71774;BME280;59607;52.130;5.430;2023-05-14T01:18:09;102088.97;;;12.00;100.00
71774;BME280;59607;52.130;5.430;2023-05-14T01:20:43;102091.59;;;12.00;100.00
71774;BME280;59607;52.130;5.430;2023-05-14T01:23:11;102087.31;;;11.99;100.00
71774;BME280;59607;52.130;5.430;2023-05-14T01:25:40;102085.66;;;11.98;100.00
71774;BME280;59607;52.130;5.430;2023-05-14T01:28:15;102087.44;;;11.97;100.00
71774;BME280;59607;52.130;5.430;2023-05-14T01:30:57;102087.72;;;11.94;100.00
71774;BME280;59607;52.130;5.430;2023-05-14T01:33:48;102088.00;;;11.91;100.00
71774;BME280;59607;52.130;5.430;2023-05-14T01:36:18;102091.47;;;11.92;100.00
71774;BME280;59607;52.130;5.430;2023-05-14T01:38:51;102093.56;;;11.88;100.00
71774;BME280;59607;52.130;5.430;2023-05-14T01:41:21;102091.06;;;11.87;100.00
71774;BME280;59607;52.130;5.430;2023-05-14T01:43:49;102092.84;;;11.86;100.00
71774;BME280;59607;52.130;5.430;2023-05-14T01:46:19;102084.31;;;11.84;100.00
71774;BME280;59607;52.130;5.430;2023-05-14T01:48:45;102081.09;;;11.80;100.00
71774;BME280;59607;52.130;5.430;2023-05-14T01:51:15;102078.63;;;11.79;100.00
71774;BME280;59607;52.130;5.430;2023-05-14T01:53:43;102079.72;;;11.76;100.00
71774;BME280;59607;52.130;5.430;2023-05-14T01:56:10;102076.41;;;11.74;100.00
71774;BME280;59607;52.130;5.430;2023-05-14T01:58:36;102075.56;;;11.73;100.00
71774;BME280;59607;52.130;5.430;2023-05-14T02:01:02;102073.38;;;11.69;100.00
71774;BME280;59607;52.130;5.430;2023-05-14T02:03:33;102069.91;;;11.68;100.00
71774;BME280;59607;52.130;5.430;2023-05-14T02:06:00;102063.94;;;11.66;100.00
71774;BME280;59607;52.130;5.430;2023-05-14T02:08:45;102062.31;;;11.65;100.00
71774;BME280;59607;52.130;5.430;2023-05-14T02:11:14;102058.16;;;11.63;100.00
71774;BME280;59607;52.130;5.430;2023-05-14T02:13:42;102056.47;;;11.62;100.00
71774;BME280;59607;52.130;5.430;2023-05-14T02:16:12;102052.34;;;11.59;100.00
71774;BME280;59607;52.130;5.430;2023-05-14T02:18:40;102045.84;;;11.53;100.00
71774;BME280;59607;52.130;5.430;2023-05-14T02:21:07;102053.72;;;11.53;100.00
71774;BME280;59607;52.130;5.430;2023-05-14T02:23:36;102057.47;;;11.51;100.00
71774;BME280;59607;52.130;5.430;2023-05-14T02:26:09;102054.97;;;11.49;100.00
71774;BME280;59607;52.130;5.430;2023-05-14T02:28:38;102065.63;;;11.47;100.00
71774;BME280;59607;52.130;5.430;2023-05-14T02:31:13;102056.22;;;11.45;100.00
71774;BME280;59607;52.130;5.430;2023-05-14T02:33:46;102059.81;;;11.44;100.00
71774;BME280;59607;52.130;5.430;2023-05-14T02:36:13;102049.44;;;11.42;100.00
71774;BME280;59607;52.130;5.430;2023-05-14T02:38:42;102050.56;;;11.40;100.00
71774;BME280;59607;52.130;5.430;2023-05-14T02:41:09;102046.16;;;11.40;100.00
71774;BME280;59607;52.130;5.430;2023-05-14T02:43:36;102045.31;;;11.40;100.00
71774;BME280;59607;52.130;5.430;2023-05-14T02:46:08;102046.25;;;11.39;100.00
71774;BME280;59607;52.130;5.430;2023-05-14T02:48:43;102045.44;;;11.38;100.00
71774;BME280;59607;52.130;5.430;2023-05-14T02:51:10;102041.13;;;11.37;100.00
71774;BME280;59607;52.130;5.430;2023-05-14T02:53:44;102036.16;;;11.34;100.00
71774;BME280;59607;52.130;5.430;2023-05-14T02:56:14;102044.03;;;11.34;100.00
71774;BME280;59607;52.130;5.430;2023-05-14T02:58:43;102043.50;;;11.30;100.00
71774;BME280;59607;52.130;5.430;2023-05-14T03:01:12;102037.56;;;11.28;100.00
71774;BME280;59607;52.130;5.430;2023-05-14T03:03:46;102039.34;;;11.28;100.00
71774;BME280;59607;52.130;5.430;2023-05-14T03:06:19;102039.22;;;11.29;100.00
71774;BME280;59607;52.130;5.430;2023-05-14T03:08:48;102033.28;;;11.27;100.00
71774;BME280;59607;52.130;5.430;2023-05-14T03:11:26;102040.47;;;11.25;100.00
71774;BME280;59607;52.130;5.430;2023-05-14T03:13:53;102035.47;;;11.22;100.00
71774;BME280;59607;52.130;5.430;2023-05-14T03:16:22;102027.59;;;11.22;100.00
71774;BME280;59607;52.130;5.430;2023-05-14T03:18:53;102026.22;;;11.18;100.00
71774;BME280;59607;52.130;5.430;2023-05-14T03:21:20;102036.72;;;11.18;100.00
71774;BME280;59607;52.130;5.430;2023-05-14T03:24:04;102037.69;;;11.17;100.00
71774;BME280;59607;52.130;5.430;2023-05-14T03:26:39;102033.00;;;11.20;100.00
71774;BME280;59607;52.130;5.430;2023-05-14T03:29:11;102034.09;;;11.18;100.00
71774;BME280;59607;52.130;5.430;2023-05-14T03:31:41;102033.28;;;11.17;100.00
71774;BME280;59607;52.130;5.430;2023-05-14T03:34:12;102030.66;;;11.17;100.00
71774;BME280;59607;52.130;5.430;2023-05-14T03:36:41;102029.81;;;11.17;100.00
71774;BME280;59607;52.130;5.430;2023-05-14T03:39:08;102032.56;;;11.15;100.00
71774;BME280;59607;52.130;5.430;2023-05-14T03:42:16;102035.19;;;11.15;100.00
71774;BME280;59607;52.130;5.430;2023-05-14T03:44:46;102034.34;;;11.15;100.00
71774;BME280;59607;52.130;5.430;2023-05-14T03:47:12;102032.56;;;11.15;100.00
71774;BME280;59607;52.130;5.430;2023-05-14T03:49:47;102031.31;;;11.19;100.00
71774;BME280;59607;52.130;5.430;2023-05-14T03:52:13;102028.41;;;11.22;100.00
71774;BME280;59607;52.130;5.430;2023-05-14T03:54:46;102033.81;;;11.21;100.00
71774;BME280;59607;52.130;5.430;2023-05-14T03:57:14;102019.88;;;11.20;100.00
71774;BME280;59607;52.130;5.430;2023-05-14T03:59:41;102024.28;;;11.20;100.00
71774;BME280;59607;52.130;5.430;2023-05-14T04:02:10;102025.78;;;11.22;100.00
71774;BME280;59607;52.130;5.430;2023-05-14T04:04:39;102021.38;;;11.23;100.00
71774;BME280;59607;52.130;5.430;2023-05-14T04:07:07;102016.53;;;11.28;100.00
71774;BME280;59607;52.130;5.430;2023-05-14T04:09:39;102015.72;;;11.28;100.00
71774;BME280;59607;52.130;5.430;2023-05-14T04:12:09;102018.19;;;11.29;100.00
71774;BME280;59607;52.130;5.430;2023-05-14T04:14:40;102017.78;;;11.34;100.00
71774;BME280;59607;52.130;5.430;2023-05-14T04:17:07;102017.91;;;11.32;100.00
71774;BME280;59607;52.130;5.430;2023-05-14T04:19:33;102014.19;;;11.35;100.00
71774;BME280;59607;52.130;5.430;2023-05-14T04:22:04;102015.84;;;11.36;100.00
71774;BME280;59607;52.130;5.430;2023-05-14T04:24:31;102015.28;;;11.42;100.00
71774;BME280;59607;52.130;5.430;2023-05-14T04:26:59;102013.78;;;11.50;100.00
71774;BME280;59607;52.130;5.430;2023-05-14T04:29:28;102016.69;;;11.56;100.00
71774;BME280;59607;52.130;5.430;2023-05-14T04:31:55;102013.84;;;11.78;100.00
71774;BME280;59607;52.130;5.430;2023-05-14T04:34:26;102011.59;;;12.03;100.00
71774;BME280;59607;52.130;5.430;2023-05-14T04:36:52;102010.31;;;12.07;100.00
71774;BME280;59607;52.130;5.430;2023-05-14T04:39:18;102003.41;;;12.16;100.00
71774;BME280;59607;52.130;5.430;2023-05-14T04:41:45;102013.50;;;12.20;100.00
71774;BME280;59607;52.130;5.430;2023-05-14T04:44:17;102011.63;;;12.41;100.00
71774;BME280;59607;52.130;5.430;2023-05-14T04:46:43;102009.78;;;12.51;100.00
71774;BME280;59607;52.130;5.430;2023-05-14T04:49:13;102013.59;;;12.85;100.00
71774;BME280;59607;52.130;5.430;2023-05-14T04:51:40;102002.13;;;13.67;96.18
71774;BME280;59607;52.130;5.430;2023-05-14T04:54:06;102004.91;;;13.66;92.47
71774;BME280;59607;52.130;5.430;2023-05-14T04:56:33;102002.59;;;13.89;92.44
71774;BME280;59607;52.130;5.430;2023-05-14T04:59:08;102013.69;;;14.79;86.40
71774;BME280;59607;52.130;5.430;2023-05-14T05:01:36;102006.66;;;15.55;83.04
71774;BME280;59607;52.130;5.430;2023-05-14T05:04:17;102005.28;;;15.84;77.75
71774;BME280;59607;52.130;5.430;2023-05-14T05:06:50;102009.72;;;15.84;76.78
71774;BME280;59607;52.130;5.430;2023-05-14T05:09:17;102008.03;;;16.08;75.08
71774;BME280;59607;52.130;5.430;2023-05-14T05:11:54;102002.34;;;15.54;77.51
71774;BME280;59607;52.130;5.430;2023-05-14T05:14:21;102009.41;;;15.70;78.06
71774;BME280;59607;52.130;5.430;2023-05-14T05:17:09;102012.19;;;15.94;75.30
71774;BME280;59607;52.130;5.430;2023-05-14T05:19:36;102003.59;;;16.00;75.86
71774;BME280;59607;52.130;5.430;2023-05-14T05:22:10;102004.78;;;16.37;73.90
71774;BME280;59607;52.130;5.430;2023-05-14T05:24:39;102009.69;;;16.49;72.36
71774;BME280;59607;52.130;5.430;2023-05-14T05:27:05;102009.78;;;16.32;72.13
71774;BME280;59607;52.130;5.430;2023-05-14T05:29:35;102012.78;;;16.61;71.74
71774;BME280;59607;52.130;5.430;2023-05-14T05:32:05;102018.09;;;16.84;70.88
71774;BME280;59607;52.130;5.430;2023-05-14T05:34:33;102017.47;;;17.06;70.25
71774;BME280;59607;52.130;5.430;2023-05-14T05:37:07;102018.81;;;17.01;69.75
71774;BME280;59607;52.130;5.430;2023-05-14T05:39:38;102019.75;;;16.85;69.82
71774;BME280;59607;52.130;5.430;2023-05-14T05:42:08;102028.06;;;15.94;73.64
71774;BME280;59607;52.130;5.430;2023-05-14T05:44:34;102013.59;;;15.48;77.27
71774;BME280;59607;52.130;5.430;2023-05-14T05:47:05;102022.63;;;14.87;80.94
71774;BME280;59607;52.130;5.430;2023-05-14T05:49:32;102030.66;;;14.25;85.77
71774;BME280;59607;52.130;5.430;2023-05-14T05:51:58;102035.63;;;14.02;88.66
71774;BME280;59607;52.130;5.430;2023-05-14T05:54:25;102030.72;;;13.80;90.58
71774;BME280;59607;52.130;5.430;2023-05-14T05:56:52;102031.44;;;13.64;92.34
71774;BME280;59607;52.130;5.430;2023-05-14T05:59:25;102038.06;;;13.68;92.62
71774;BME280;59607;52.130;5.430;2023-05-14T06:01:59;102039.34;;;13.64;93.16
71774;BME280;59607;52.130;5.430;2023-05-14T06:04:25;102030.41;;;13.57;94.51
71774;BME280;59607;52.130;5.430;2023-05-14T06:06:54;102032.03;;;13.76;94.85
71774;BME280;59607;52.130;5.430;2023-05-14T06:09:23;102036.44;;;14.29;91.40
71774;BME280;59607;52.130;5.430;2023-05-14T06:11:49;102039.97;;;14.11;90.46
71774;BME280;59607;52.130;5.430;2023-05-14T06:14:16;102029.34;;;13.94;93.03
71774;BME280;59607;52.130;5.430;2023-05-14T06:16:44;102034.72;;;13.85;92.92
71774;BME280;59607;52.130;5.430;2023-05-14T06:19:13;102042.84;;;13.91;93.78
71774;BME280;59607;52.130;5.430;2023-05-14T06:21:46;102041.00;;;13.92;93.20
71774;BME280;59607;52.130;5.430;2023-05-14T06:24:14;102036.78;;;13.99;94.17
71774;BME280;59607;52.130;5.430;2023-05-14T06:26:44;102035.22;;;14.15;93.08
71774;BME280;59607;52.130;5.430;2023-05-14T06:29:14;102048.91;;;14.53;90.43
71774;BME280;59607;52.130;5.430;2023-05-14T06:31:40;102051.09;;;14.66;89.87
71774;BME280;59607;52.130;5.430;2023-05-14T06:34:10;102055.94;;;14.36;90.39
71774;BME280;59607;52.130;5.430;2023-05-14T06:36:37;102041.22;;;14.25;91.60
71774;BME280;59607;52.130;5.430;2023-05-14T06:39:03;102039.69;;;14.58;91.04
71774;BME280;59607;52.130;5.430;2023-05-14T06:41:32;102040.41;;;14.76;89.01
71774;BME280;59607;52.130;5.430;2023-05-14T06:44:03;102034.38;;;15.01;88.24
71774;BME280;59607;52.130;5.430;2023-05-14T06:46:30;102031.94;;;15.16;86.88
71774;BME280;59607;52.130;5.430;2023-05-14T06:48:59;102044.13;;;15.17;88.66
71774;BME280;59607;52.130;5.430;2023-05-14T06:51:25;102044.66;;;15.46;84.62
71774;BME280;59607;52.130;5.430;2023-05-14T06:53:53;102029.63;;;15.38;85.10
71774;BME280;59607;52.130;5.430;2023-05-14T06:56:33;102024.50;;;15.53;84.21
71774;BME280;59607;52.130;5.430;2023-05-14T06:59:05;102020.81;;;16.04;82.14
71774;BME280;59607;52.130;5.430;2023-05-14T07:01:31;102016.22;;;15.73;81.50
71774;BME280;59607;52.130;5.430;2023-05-14T07:03:58;102023.53;;;15.46;84.60
71774;BME280;59607;52.130;5.430;2023-05-14T07:06:30;102026.75;;;15.98;81.38
71774;BME280;59607;52.130;5.430;2023-05-14T07:09:00;102015.44;;;16.21;79.96
71774;BME280;59607;52.130;5.430;2023-05-14T07:11:27;102023.38;;;16.21;79.31
71774;BME280;59607;52.130;5.430;2023-05-14T07:13:54;102021.94;;;16.10;80.28
71774;BME280;59607;52.130;5.430;2023-05-14T07:16:23;102022.38;;;16.30;80.58
71774;BME280;59607;52.130;5.430;2023-05-14T07:18:49;102019.56;;;16.32;80.89
71774;BME280;59607;52.130;5.430;2023-05-14T07:21:34;102026.16;;;16.36;78.54
71774;BME280;59607;52.130;5.430;2023-05-14T07:24:04;102028.38;;;16.15;80.39
71774;BME280;59607;52.130;5.430;2023-05-14T07:26:30;102022.09;;;16.48;78.67
71774;BME280;59607;52.130;5.430;2023-05-14T07:29:03;102022.81;;;16.42;78.10
71774;BME280;59607;52.130;5.430;2023-05-14T07:31:32;102016.59;;;16.58;79.09
71774;BME280;59607;52.130;5.430;2023-05-14T07:33:59;102023.19;;;16.94;76.67
71774;BME280;59607;52.130;5.430;2023-05-14T07:36:25;102014.63;;;16.84;76.50
71774;BME280;59607;52.130;5.430;2023-05-14T07:38:56;102015.53;;;16.99;76.03
71774;BME280;59607;52.130;5.430;2023-05-14T07:41:23;102020.94;;;16.83;77.09
71774;BME280;59607;52.130;5.430;2023-05-14T07:43:55;102013.75;;;16.92;77.46
71774;BME280;59607;52.130;5.430;2023-05-14T07:46:22;102005.28;;;17.20;80.03
71774;BME280;59607;52.130;5.430;2023-05-14T07:48:59;102006.75;;;17.61;75.73
71774;BME280;59607;52.130;5.430;2023-05-14T07:51:28;102008.84;;;17.50;76.30
71774;BME280;59607;52.130;5.430;2023-05-14T07:54:01;102011.50;;;17.50;73.80
71774;BME280;59607;52.130;5.430;2023-05-14T07:56:28;102004.50;;;17.34;76.23
71774;BME280;59607;52.130;5.430;2023-05-14T07:58:57;102000.88;;;17.35;75.46
71774;BME280;59607;52.130;5.430;2023-05-14T08:01:23;102002.44;;;17.45;75.64
71774;BME280;59607;52.130;5.430;2023-05-14T08:03:50;101997.63;;;17.79;75.33
71774;BME280;59607;52.130;5.430;2023-05-14T08:06:17;102008.88;;;17.81;75.13
71774;BME280;59607;52.130;5.430;2023-05-14T08:08:48;102002.56;;;17.82;74.47
71774;BME280;59607;52.130;5.430;2023-05-14T08:11:14;102000.44;;;17.62;75.74
71774;BME280;59607;52.130;5.430;2023-05-14T08:13:40;102002.72;;;17.65;76.41
71774;BME280;59607;52.130;5.430;2023-05-14T08:16:12;102002.63;;;17.58;76.67
71774;BME280;59607;52.130;5.430;2023-05-14T08:18:38;102014.13;;;17.35;78.81
71774;BME280;59607;52.130;5.430;2023-05-14T08:21:05;102008.72;;;17.44;79.77
71774;BME280;59607;52.130;5.430;2023-05-14T08:23:37;102000.91;;;17.66;78.74
71774;BME280;59607;52.130;5.430;2023-05-14T08:26:04;102004.84;;;18.15;76.56
71774;BME280;59607;52.130;5.430;2023-05-14T08:28:34;102000.81;;;18.34;75.24
71774;BME280;59607;52.130;5.430;2023-05-14T08:31:00;102000.50;;;18.44;73.74
71774;BME280;59607;52.130;5.430;2023-05-14T08:33:26;102003.72;;;18.40;74.13
71774;BME280;59607;52.130;5.430;2023-05-14T08:35:53;101987.63;;;18.63;73.16
71774;BME280;59607;52.130;5.430;2023-05-14T08:38:23;101994.22;;;18.67;72.95
71774;BME280;59607;52.130;5.430;2023-05-14T08:41:10;101987.50;;;18.93;73.22
71774;BME280;59607;52.130;5.430;2023-05-14T08:43:53;101990.53;;;19.34;69.99
71774;BME280;59607;52.130;5.430;2023-05-14T08:46:38;101997.00;;;19.24;71.86
71774;BME280;59607;52.130;5.430;2023-05-14T08:49:24;101982.91;;;19.59;69.13
71774;BME280;59607;52.130;5.430;2023-05-14T08:51:57;101969.78;;;19.87;67.69
71774;BME280;59607;52.130;5.430;2023-05-14T08:54:28;101969.38;;;19.90;65.82
71774;BME280;59607;52.130;5.430;2023-05-14T08:56:58;101978.56;;;19.52;68.49
71774;BME280;59607;52.130;5.430;2023-05-14T08:59:25;101980.97;;;19.40;67.78
71774;BME280;59607;52.130;5.430;2023-05-14T09:02:01;101985.78;;;19.58;68.61
71774;BME280;59607;52.130;5.430;2023-05-14T09:04:28;101973.38;;;19.72;66.14
71774;BME280;59607;52.130;5.430;2023-05-14T09:07:00;101978.44;;;19.31;66.70
71774;BME280;59607;52.130;5.430;2023-05-14T09:09:27;101974.81;;;19.10;67.25
71774;BME280;59607;52.130;5.430;2023-05-14T09:12:03;101972.97;;;19.11;67.56
71774;BME280;59607;52.130;5.430;2023-05-14T09:14:31;101975.38;;;19.06;68.89
71774;BME280;59607;52.130;5.430;2023-05-14T09:17:12;101965.88;;;19.18;68.95
71774;BME280;59607;52.130;5.430;2023-05-14T09:19:53;101968.44;;;19.33;67.54
71774;BME280;59607;52.130;5.430;2023-05-14T09:22:28;101956.09;;;19.26;67.49
71774;BME280;59607;52.130;5.430;2023-05-14T09:25:03;101955.47;;;19.23;68.50
71774;BME280;59607;52.130;5.430;2023-05-14T09:27:34;101961.81;;;19.58;68.30
71774;BME280;59607;52.130;5.430;2023-05-14T09:30:13;101960.53;;;19.47;66.51
71774;BME280;59607;52.130;5.430;2023-05-14T09:32:41;101951.63;;;19.04;68.17
71774;BME280;59607;52.130;5.430;2023-05-14T09:35:17;101951.25;;;19.36;68.31
71774;BME280;59607;52.130;5.430;2023-05-14T09:37:49;101950.19;;;19.59;67.38
71774;BME280;59607;52.130;5.430;2023-05-14T09:40:21;101949.44;;;19.36;67.67
71774;BME280;59607;52.130;5.430;2023-05-14T09:42:55;101946.59;;;19.45;68.50
71774;BME280;59607;52.130;5.430;2023-05-14T09:45:24;101945.06;;;19.57;67.57
71774;BME280;59607;52.130;5.430;2023-05-14T09:47:50;101938.63;;;19.80;68.20
71774;BME280;59607;52.130;5.430;2023-05-14T09:50:44;101943.44;;;20.05;66.37
71774;BME280;59607;52.130;5.430;2023-05-14T09:53:12;101933.88;;;20.25;66.32
71774;BME280;59607;52.130;5.430;2023-05-14T09:55:46;101939.38;;;20.16;64.88
71774;BME280;59607;52.130;5.430;2023-05-14T09:58:12;101938.59;;;20.16;67.00
71774;BME280;59607;52.130;5.430;2023-05-14T10:00:49;101937.94;;;20.14;66.17
71774;BME280;59607;52.130;5.430;2023-05-14T10:03:17;101937.56;;;20.24;64.96
71774;BME280;59607;52.130;5.430;2023-05-14T10:06:05;101933.94;;;20.45;63.30
71774;BME280;59607;52.130;5.430;2023-05-14T10:08:40;101929.34;;;20.18;64.15
71774;BME280;59607;52.130;5.430;2023-05-14T10:11:32;101927.75;;;20.38;65.12
71774;BME280;59607;52.130;5.430;2023-05-14T10:14:24;101926.78;;;20.59;63.45
71774;BME280;59607;52.130;5.430;2023-05-14T10:17:10;101924.94;;;20.87;64.17
71774;BME280;59607;52.130;5.430;2023-05-14T10:19:52;101922.88;;;20.62;62.46
71774;BME280;59607;52.130;5.430;2023-05-14T10:22:23;101923.50;;;20.64;61.85
71774;BME280;59607;52.130;5.430;2023-05-14T10:24:52;101917.16;;;20.65;62.27
71774;BME280;59607;52.130;5.430;2023-05-14T10:27:28;101917.53;;;20.62;62.15
71774;BME280;59607;52.130;5.430;2023-05-14T10:29:59;101920.78;;;20.30;62.82
71774;BME280;59607;52.130;5.430;2023-05-14T10:32:30;101916.09;;;20.52;61.14
71774;BME280;59607;52.130;5.430;2023-05-14T10:35:00;101907.94;;;20.74;60.59
71774;BME280;59607;52.130;5.430;2023-05-14T10:37:29;101921.88;;;20.96;60.14
71774;BME280;59607;52.130;5.430;2023-05-14T10:42:26;101915.50;;;20.91;60.50
71774;BME280;59607;52.130;5.430;2023-05-14T10:44:55;101910.19;;;20.77;60.25
71774;BME280;59607;52.130;5.430;2023-05-14T10:47:28;101907.94;;;21.01;59.88
71774;BME280;59607;52.130;5.430;2023-05-14T10:49:57;101910.34;;;20.89;61.28
71774;BME280;59607;52.130;5.430;2023-05-14T10:52:24;101895.81;;;21.05;59.40
71774;BME280;59607;52.130;5.430;2023-05-14T10:55:04;101896.00;;;21.24;58.74
71774;BME280;59607;52.130;5.430;2023-05-14T10:57:51;101893.94;;;21.26;59.92
71774;BME280;59607;52.130;5.430;2023-05-14T11:00:17;101892.25;;;21.39;58.31
71774;BME280;59607;52.130;5.430;2023-05-14T11:02:46;101889.78;;;21.44;59.50
71774;BME280;59607;52.130;5.430;2023-05-14T11:05:15;101881.84;;;21.17;59.34
71774;BME280;59607;52.130;5.430;2023-05-14T11:07:48;101891.75;;;21.69;58.87
71774;BME280;59607;52.130;5.430;2023-05-14T11:10:17;101889.75;;;22.03;57.93
71774;BME280;59607;52.130;5.430;2023-05-14T11:12:50;101885.69;;;22.01;56.91
71774;BME280;59607;52.130;5.430;2023-05-14T11:15:26;101885.97;;;22.18;57.37
71774;BME280;59607;52.130;5.430;2023-05-14T11:17:56;101883.66;;;21.96;57.26
71774;BME280;59607;52.130;5.430;2023-05-14T11:20:26;101887.16;;;21.90;56.71
71774;BME280;59607;52.130;5.430;2023-05-14T11:22:56;101877.81;;;22.06;58.77
71774;BME280;59607;52.130;5.430;2023-05-14T11:25:22;101876.38;;;22.68;55.71
71774;BME280;59607;52.130;5.430;2023-05-14T11:27:57;101870.41;;;22.91;54.79
71774;BME280;59607;52.130;5.430;2023-05-14T11:30:26;101866.25;;;22.96;52.90
71774;BME280;59607;52.130;5.430;2023-05-14T11:33:06;101873.03;;;22.73;55.27
71774;BME280;59607;52.130;5.430;2023-05-14T11:35:41;101867.91;;;22.46;54.66
71774;BME280;59607;52.130;5.430;2023-05-14T11:38:19;101856.72;;;22.55;53.61
71774;BME280;59607;52.130;5.430;2023-05-14T11:40:53;101862.03;;;22.62;54.58
71774;BME280;59607;52.130;5.430;2023-05-14T11:43:37;101847.84;;;23.06;53.68
71774;BME280;59607;52.130;5.430;2023-05-14T11:46:07;101857.81;;;22.48;54.95
71774;BME280;59607;52.130;5.430;2023-05-14T11:48:33;101855.00;;;22.10;56.92
71774;BME280;59607;52.130;5.430;2023-05-14T11:51:03;101854.59;;;22.06;56.80
71774;BME280;59607;52.130;5.430;2023-05-14T11:53:31;101856.38;;;22.19;56.41
71774;BME280;59607;52.130;5.430;2023-05-14T11:55:57;101854.81;;;22.05;56.32
71774;BME280;59607;52.130;5.430;2023-05-14T11:58:25;101852.81;;;22.26;56.42
71774;BME280;59607;52.130;5.430;2023-05-14T12:00:54;101854.53;;;22.20;55.22
71774;BME280;59607;52.130;5.430;2023-05-14T12:03:21;101854.03;;;22.62;54.43
71774;BME280;59607;52.130;5.430;2023-05-14T12:06:06;101848.22;;;22.65;54.06
71774;BME280;59607;52.130;5.430;2023-05-14T12:08:39;101850.44;;;22.43;54.52
71774;BME280;59607;52.130;5.430;2023-05-14T12:11:05;101839.19;;;22.34;54.94
71774;BME280;59607;52.130;5.430;2023-05-14T12:13:35;101839.59;;;22.38;55.02
71774;BME280;59607;52.130;5.430;2023-05-14T12:16:05;101830.47;;;22.71;55.04
71774;BME280;59607;52.130;5.430;2023-05-14T12:18:32;101828.94;;;22.82;52.60
71774;BME280;59607;52.130;5.430;2023-05-14T12:21:05;101831.41;;;22.84;53.49
71774;BME280;59607;52.130;5.430;2023-05-14T12:23:33;101833.25;;;22.83;53.11
71774;BME280;59607;52.130;5.430;2023-05-14T12:26:05;101822.50;;;22.90;54.34
71774;BME280;59607;52.130;5.430;2023-05-14T12:28:40;101823.59;;;23.01;51.47
71774;BME280;59607;52.130;5.430;2023-05-14T12:33:38;101820.09;;;23.00;51.80
71774;BME280;59607;52.130;5.430;2023-05-14T12:36:07;101812.53;;;22.78;54.05
71774;BME280;59607;52.130;5.430;2023-05-14T12:39:01;101814.31;;;22.85;53.68
71774;BME280;59607;52.130;5.430;2023-05-14T12:41:31;101811.00;;;22.64;52.69
71774;BME280;59607;52.130;5.430;2023-05-14T12:43:58;101803.31;;;23.12;54.43
71774;BME280;59607;52.130;5.430;2023-05-14T12:46:26;101804.31;;;23.29;54.04
71774;BME280;59607;52.130;5.430;2023-05-14T12:48:57;101791.94;;;23.66;52.90
71774;BME280;59607;52.130;5.430;2023-05-14T12:51:25;101802.06;;;23.14;53.79
71774;BME280;59607;52.130;5.430;2023-05-14T12:53:55;101801.81;;;23.53;52.49
71774;BME280;59607;52.130;5.430;2023-05-14T12:56:33;101798.38;;;23.77;52.32
71774;BME280;59607;52.130;5.430;2023-05-14T12:59:06;101787.97;;;23.69;51.43
71774;BME280;59607;52.130;5.430;2023-05-14T13:01:32;101795.34;;;23.42;52.72
71774;BME280;59607;52.130;5.430;2023-05-14T13:03:59;101798.84;;;23.43;51.77
71774;BME280;59607;52.130;5.430;2023-05-14T13:06:30;101791.31;;;23.52;52.49
71774;BME280;59607;52.130;5.430;2023-05-14T13:08:56;101803.38;;;23.42;52.04
71774;BME280;59607;52.130;5.430;2023-05-14T13:11:32;101788.66;;;23.64;51.34
71774;BME280;59607;52.130;5.430;2023-05-14T13:14:00;101796.44;;;23.53;51.75